Time;durP1;ratioP1;P1;durP2;ratioP2;P2;SDS_P1;SDS_P2;PMS_P1;PMS_P2;Temp;Humidity;BMP_temperature;BMP_pressure;BME280_temperature;BME280_humidity;BME280_pressure;Samples;Min_cycle;Max_cycle;Signal;HPM_P1;HPM_P2
2024/01/30 00:01:27;;;;;;;7.53;3.10;;;;;;;;;;4947345;28;99643;-70
2024/01/30 00:03:54;;;;;;;6.05;2.85;;;;;;;;;;4949548;28;99358;-70
2024/01/30 00:06:21;;;;;;;7.00;3.28;;;;;;;;;;4970159;28;99992;-70
2024/01/30 00:08:48;;;;;;;7.85;3.22;;;;;;;;;;4967039;28;99408;-70
2024/01/30 00:11:16;;;;;;;6.53;3.05;;;;;;;;;;4948263;28;100097;-70
2024/01/30 00:13:42;;;;;;;6.95;3.13;;;;;;;;;;4947091;28;100548;-70
2024/01/30 00:16:09;;;;;;;7.07;3.20;;;;;;;;;;4948141;28;99509;-70
2024/01/30 00:18:35;;;;;;;6.80;3.08;;;;;;;;;;4947084;28;99542;-70
2024/01/30 00:21:03;;;;;;;7.20;3.08;;;;;;;;;;4947861;28;98533;-70
2024/01/30 00:23:29;;;;;;;7.13;3.15;;;;;;;;;;4947164;28;98525;-70
2024/01/30 00:25:56;;;;;;;7.18;3.10;;;;;;;;;;4947659;28;99027;-70
2024/01/30 00:28:23;;;;;;;7.63;3.65;;;;;;;;;;4949848;28;99824;-70
2024/01/30 00:30:50;;;;;;;7.68;3.22;;;;;;;;;;4946815;28;100224;-70
2024/01/30 00:33:16;;;;;;;6.15;2.97;;;;;;;;;;4946672;28;99324;-70
2024/01/30 00:35:43;;;;;;;6.35;2.92;;;;;;;;;;4947180;28;99078;-70
2024/01/30 00:38:09;;;;;;;6.45;3.13;;;;;;;;;;4930609;28;100755;-70
2024/01/30 00:40:36;;;;;;;9.93;3.28;;;;;;;;;;4958266;28;98703;-70
2024/01/30 00:43:02;;;;;;;7.10;3.38;;;;;;;;;;4967127;28;98990;-70
2024/01/30 00:45:29;;;;;;;7.03;3.22;;;;;;;;;;4930515;28;102406;-70
2024/01/30 00:47:56;;;;;;;7.55;3.35;;;;;;;;;;4928457;28;101729;-69
2024/01/30 00:50:22;;;;;;;7.38;2.90;;;;;;;;;;4950673;28;98606;-70
2024/01/30 00:52:49;;;;;;;6.72;3.08;;;;;;;;;;4945267;28;101656;-70
2024/01/30 00:55:15;;;;;;;8.63;3.03;;;;;;;;;;4946932;28;98820;-70
2024/01/30 00:57:42;;;;;;;7.78;3.13;;;;;;;;;;4947390;28;98968;-70
2024/01/30 01:00:12;;;;;;;7.78;3.13;;;;;;;;;;4946291;28;99173;-70
2024/01/30 01:02:39;;;;;;;6.50;3.03;;;;;;;;;;4946562;28;98585;-70
2024/01/30 01:05:06;;;;;;;8.48;3.15;;;;;;;;;;4958854;28;98786;-70
2024/01/30 01:07:32;;;;;;;7.25;3.28;;;;;;;;;;4965394;28;100435;-70
2024/01/30 01:09:58;;;;;;;7.85;3.30;;;;;;;;;;4949048;28;97733;-70
2024/01/30 01:12:25;;;;;;;8.05;3.38;;;;;;;;;;4950324;28;98537;-70
2024/01/30 01:14:51;;;;;;;7.95;3.28;;;;;;;;;;4964329;28;99161;-70
2024/01/30 01:17:18;;;;;;;7.60;3.15;;;;;;;;;;4961210;28;100002;-70
2024/01/30 01:19:45;;;;;;;9.48;3.30;;;;;;;;;;4946050;28;100306;-69
2024/01/30 01:22:11;;;;;;;8.50;3.50;;;;;;;;;;4946333;28;98902;-69
2024/01/30 01:24:38;;;;;;;7.10;3.20;;;;;;;;;;4948266;28;99956;-70
2024/01/30 01:27:05;;;;;;;6.75;3.20;;;;;;;;;;4949752;28;99366;-70
2024/01/30 01:29:32;;;;;;;7.35;3.30;;;;;;;;;;4932981;28;98645;-70
2024/01/30 01:31:58;;;;;;;7.68;3.13;;;;;;;;;;4951135;28;98841;-70
2024/01/30 01:34:25;;;;;;;7.20;3.25;;;;;;;;;;4953420;28;98507;-70
2024/01/30 01:36:56;;;;;;;7.53;3.15;;;;;;;;;;4948863;28;98586;-70
2024/01/30 01:39:23;;;;;;;7.85;3.47;;;;;;;;;;4951176;28;99179;-71
2024/01/30 01:41:50;;;;;;;6.68;3.10;;;;;;;;;;4949765;28;99279;-71
2024/01/30 01:44:17;;;;;;;6.97;3.13;;;;;;;;;;4950098;28;99070;-71
2024/01/30 01:46:44;;;;;;;7.53;3.25;;;;;;;;;;4948643;28;100195;-71
2024/01/30 01:49:10;;;;;;;8.38;3.55;;;;;;;;;;4948533;28;98646;-71
2024/01/30 01:51:37;;;;;;;6.97;3.10;;;;;;;;;;4949013;28;99048;-71
2024/01/30 01:54:05;;;;;;;7.25;3.22;;;;;;;;;;4952674;28;99236;-71
2024/01/30 01:56:32;;;;;;;7.57;3.30;;;;;;;;;;4949930;28;106024;-71
2024/01/30 01:59:07;;;;;;;8.75;3.30;;;;;;;;;;4949262;28;103130;-71
2024/01/30 02:01:35;;;;;;;6.93;3.10;;;;;;;;;;4949643;28;98567;-71
2024/01/30 02:04:02;;;;;;;6.60;3.30;;;;;;;;;;4953524;28;99439;-71
2024/01/30 02:06:29;;;;;;;6.43;3.35;;;;;;;;;;4967488;28;101006;-69
2024/01/30 02:08:55;;;;;;;6.95;3.22;;;;;;;;;;4948692;28;98681;-71
2024/01/30 02:11:22;;;;;;;6.78;3.33;;;;;;;;;;4949911;28;99490;-71
2024/01/30 02:13:49;;;;;;;14.93;4.10;;;;;;;;;;4953634;28;100183;-71
2024/01/30 02:16:17;;;;;;;12.35;3.42;;;;;;;;;;4953118;28;98754;-71
2024/01/30 02:18:47;;;;;;;12.02;3.75;;;;;;;;;;4948503;28;99111;-71
2024/01/30 02:21:17;;;;;;;9.93;3.75;;;;;;;;;;4949517;28;98510;-71
2024/01/30 02:23:44;;;;;;;11.52;3.13;;;;;;;;;;4949434;28;98734;-71
2024/01/30 02:26:11;;;;;;;;;;;;;;;;;;4949263;28;100095;-72
2024/01/30 02:28:38;;;;;;;9.18;3.42;;;;;;;;;;4949787;28;100275;-71
2024/01/30 02:31:05;;;;;;;12.70;3.22;;;;;;;;;;4948619;28;99319;-71
2024/01/30 02:33:32;;;;;;;12.50;3.63;;;;;;;;;;4948623;28;99677;-72
2024/01/30 02:35:58;;;;;;;8.02;3.30;;;;;;;;;;4948111;28;98571;-71
2024/01/30 02:38:26;;;;;;;7.63;3.20;;;;;;;;;;4951735;28;99506;-71
2024/01/30 02:40:53;;;;;;;9.90;3.20;;;;;;;;;;4948852;28;98587;-71
2024/01/30 02:43:19;;;;;;;7.43;3.45;;;;;;;;;;4948679;28;98982;-71
2024/01/30 02:45:46;;;;;;;6.82;3.25;;;;;;;;;;4947460;28;99312;-71
2024/01/30 02:48:12;;;;;;;7.22;3.28;;;;;;;;;;4948907;28;97932;-71
2024/01/30 02:50:39;;;;;;;7.95;3.00;;;;;;;;;;4947982;28;98861;-71
2024/01/30 02:53:06;;;;;;;8.25;3.13;;;;;;;;;;4948045;28;100474;-70
2024/01/30 02:55:33;;;;;;;8.00;3.40;;;;;;;;;;4948314;28;99498;-70
2024/01/30 02:57:59;;;;;;;13.30;3.80;;;;;;;;;;4948729;28;99678;-71
2024/01/30 03:00:26;;;;;;;9.52;3.45;;;;;;;;;;4951284;28;100326;-70
2024/01/30 03:02:52;;;;;;;8.75;3.20;;;;;;;;;;4948448;28;99132;-71
2024/01/30 03:05:18;;;;;;;9.23;3.50;;;;;;;;;;4932477;28;100483;-71
2024/01/30 03:07:45;;;;;;;7.05;3.35;;;;;;;;;;4948865;28;99033;-71
2024/01/30 03:10:12;;;;;;;7.30;3.40;;;;;;;;;;4948197;28;99889;-70
2024/01/30 03:12:38;;;;;;;8.20;3.25;;;;;;;;;;4950465;28;99159;-71
2024/01/30 03:15:05;;;;;;;8.63;3.65;;;;;;;;;;4967847;28;98627;-71
2024/01/30 03:17:32;;;;;;;10.15;3.65;;;;;;;;;;4968053;28;98850;-71
2024/01/30 03:19:58;;;;;;;8.23;3.35;;;;;;;;;;4949433;28;100087;-70
2024/01/30 03:22:25;;;;;;;8.38;3.30;;;;;;;;;;4951826;28;98995;-70
2024/01/30 03:24:52;;;;;;;8.88;3.22;;;;;;;;;;4947622;28;99205;-71
2024/01/30 03:27:18;;;;;;;6.80;3.22;;;;;;;;;;4948052;28;98828;-71
2024/01/30 03:29:45;;;;;;;9.00;3.67;;;;;;;;;;4948418;28;100022;-71
2024/01/30 03:32:11;;;;;;;7.95;3.33;;;;;;;;;;4947594;28;99102;-71
2024/01/30 03:34:38;;;;;;;15.23;3.80;;;;;;;;;;4929650;28;98634;-71
2024/01/30 03:37:05;;;;;;;10.88;3.80;;;;;;;;;;4949000;28;98674;-71
2024/01/30 03:39:36;;;;;;;8.43;3.60;;;;;;;;;;4934982;28;99132;-71
2024/01/30 03:42:03;;;;;;;9.02;3.03;;;;;;;;;;4947461;28;98570;-70
2024/01/30 03:44:29;;;;;;;8.75;3.70;;;;;;;;;;4950292;28;100021;-70
2024/01/30 03:46:56;;;;;;;7.53;3.22;;;;;;;;;;4945552;28;98810;-70
2024/01/30 03:49:22;;;;;;;7.13;3.45;;;;;;;;;;4947806;28;99921;-70
2024/01/30 03:51:49;;;;;;;7.68;3.35;;;;;;;;;;4947667;28;99626;-70
2024/01/30 03:54:16;;;;;;;9.70;3.63;;;;;;;;;;4948211;28;98570;-71
2024/01/30 03:56:42;;;;;;;9.32;3.45;;;;;;;;;;4947654;28;99880;-70
2024/01/30 03:59:09;;;;;;;15.40;3.58;;;;;;;;;;4947582;28;99103;-70
2024/01/30 04:01:35;;;;;;;16.63;3.60;;;;;;;;;;4948537;28;97999;-71
2024/01/30 04:04:02;;;;;;;8.70;3.55;;;;;;;;;;4950760;28;106640;-71
2024/01/30 04:06:28;;;;;;;10.93;3.25;;;;;;;;;;4947895;28;98859;-71
2024/01/30 04:08:55;;;;;;;10.77;3.90;;;;;;;;;;4945339;28;100038;-70
2024/01/30 04:11:21;;;;;;;9.13;3.28;;;;;;;;;;4947320;28;100133;-70
2024/01/30 04:13:48;;;;;;;7.78;3.17;;;;;;;;;;4959618;28;98649;-71
2024/01/30 04:16:23;;;;;;;8.80;3.40;;;;;;;;;;4933759;28;99966;-71
2024/01/30 04:18:51;;;;;;;9.13;3.45;;;;;;;;;;4945973;28;100320;-71
2024/01/30 04:21:17;;;;;;;11.65;3.30;;;;;;;;;;4947877;28;98834;-71
2024/01/30 04:23:44;;;;;;;10.38;3.38;;;;;;;;;;4947423;28;99225;-71
2024/01/30 04:26:10;;;;;;;8.32;3.35;;;;;;;;;;4950496;28;99062;-70
2024/01/30 04:28:37;;;;;;;8.70;3.35;;;;;;;;;;4946523;28;99436;-71
2024/01/30 04:31:04;;;;;;;7.93;3.50;;;;;;;;;;4947423;28;99239;-70
2024/01/30 04:33:30;;;;;;;7.88;3.13;;;;;;;;;;4946445;28;99588;-71
2024/01/30 04:35:57;;;;;;;10.27;3.55;;;;;;;;;;4947245;28;99874;-71
2024/01/30 04:38:23;;;;;;;12.77;3.53;;;;;;;;;;4953150;28;99440;-71
2024/01/30 04:40:50;;;;;;;8.05;3.33;;;;;;;;;;4966183;28;98534;-71
2024/01/30 04:43:16;;;;;;;8.23;3.30;;;;;;;;;;4941966;28;100194;-71
2024/01/30 04:45:43;;;;;;;8.00;2.95;;;;;;;;;;4947458;28;99133;-71
2024/01/30 04:48:10;;;;;;;8.82;3.60;;;;;;;;;;4949664;28;99086;-71
2024/01/30 04:50:36;;;;;;;8.60;3.22;;;;;;;;;;4946503;28;99334;-71
2024/01/30 04:53:03;;;;;;;10.65;3.25;;;;;;;;;;4947581;28;98531;-71
2024/01/30 04:55:29;;;;;;;8.77;3.15;;;;;;;;;;4947144;28;98869;-70
2024/01/30 04:57:56;;;;;;;10.55;3.28;;;;;;;;;;4946159;28;100189;-70
2024/01/30 05:00:22;;;;;;;7.63;3.45;;;;;;;;;;4947631;28;99320;-71
2024/01/30 05:02:49;;;;;;;7.88;3.10;;;;;;;;;;4945806;28;99016;-70
2024/01/30 05:05:16;;;;;;;7.60;3.30;;;;;;;;;;4961772;28;99053;-70
2024/01/30 05:07:43;;;;;;;13.30;3.60;;;;;;;;;;4967342;28;99046;-70
2024/01/30 05:10:09;;;;;;;9.60;3.13;;;;;;;;;;4970079;28;99675;-70
2024/01/30 05:12:36;;;;;;;6.85;2.85;;;;;;;;;;4951437;28;98808;-71
2024/01/30 05:15:03;;;;;;;9.73;3.15;;;;;;;;;;4966236;28;98307;-70
2024/01/30 05:17:29;;;;;;;11.02;3.42;;;;;;;;;;4966510;28;99591;-71
2024/01/30 05:19:56;;;;;;;8.82;3.30;;;;;;;;;;4965776;28;98896;-71
2024/01/30 05:22:22;;;;;;;9.15;2.95;;;;;;;;;;4966348;28;99636;-71
2024/01/30 05:24:49;;;;;;;8.85;3.13;;;;;;;;;;4960384;28;99761;-71
2024/01/30 05:27:15;;;;;;;7.70;3.20;;;;;;;;;;4946877;28;98767;-71
2024/01/30 05:29:42;;;;;;;6.63;3.08;;;;;;;;;;4947094;28;99193;-71
2024/01/30 05:32:08;;;;;;;6.43;3.30;;;;;;;;;;4950003;28;99451;-70
2024/01/30 05:34:35;;;;;;;6.10;2.90;;;;;;;;;;4945337;28;99864;-71
2024/01/30 05:37:01;;;;;;;6.60;3.13;;;;;;;;;;4946078;28;99425;-70
2024/01/30 05:39:28;;;;;;;6.68;3.10;;;;;;;;;;4956790;28;98371;-70
2024/01/30 05:41:54;;;;;;;6.65;3.10;;;;;;;;;;4966445;28;99491;-71
2024/01/30 05:44:21;;;;;;;8.20;3.08;;;;;;;;;;4966001;28;99159;-71
2024/01/30 05:46:48;;;;;;;8.43;3.25;;;;;;;;;;4965139;28;99521;-71
2024/01/30 05:49:14;;;;;;;7.72;2.80;;;;;;;;;;4965659;28;99425;-70
2024/01/30 05:51:40;;;;;;;8.50;3.20;;;;;;;;;;4948206;28;99327;-71
2024/01/30 05:54:07;;;;;;;6.95;3.17;;;;;;;;;;4957949;28;98760;-71
2024/01/30 05:56:34;;;;;;;7.30;3.10;;;;;;;;;;4946316;28;99110;-71
2024/01/30 05:59:00;;;;;;;6.50;3.08;;;;;;;;;;4946255;28;98948;-71
2024/01/30 06:01:27;;;;;;;7.30;3.03;;;;;;;;;;4946786;28;99480;-71
2024/01/30 06:03:54;;;;;;;9.38;3.00;;;;;;;;;;4949195;28;98525;-71
2024/01/30 06:06:20;;;;;;;6.57;2.95;;;;;;;;;;4966207;28;99094;-71
2024/01/30 06:08:47;;;;;;;7.30;2.80;;;;;;;;;;4949789;28;99071;-71
2024/01/30 06:11:13;;;;;;;7.10;2.80;;;;;;;;;;4930847;28;100871;-71
2024/01/30 06:13:40;;;;;;;7.20;2.97;;;;;;;;;;4963519;28;98571;-71
2024/01/30 06:16:09;;;;;;;6.90;3.00;;;;;;;;;;4962509;28;100188;-71
2024/01/30 06:18:36;;;;;;;6.70;2.83;;;;;;;;;;4955110;28;98949;-71
2024/01/30 06:21:04;;;;;;;6.13;2.63;;;;;;;;;;4966389;28;99236;-71
2024/01/30 06:23:30;;;;;;;5.78;2.90;;;;;;;;;;4949123;28;100507;-71
2024/01/30 06:25:57;;;;;;;7.55;2.65;;;;;;;;;;4949554;28;98818;-71
2024/01/30 06:28:23;;;;;;;6.75;2.90;;;;;;;;;;4950001;28;99990;-71
2024/01/30 06:30:50;;;;;;;7.55;2.63;;;;;;;;;;4949614;28;99221;-71
2024/01/30 06:33:16;;;;;;;6.80;2.83;;;;;;;;;;4948994;28;100695;-71
2024/01/30 06:35:45;;;;;;;8.15;2.95;;;;;;;;;;4951508;28;99770;-71
2024/01/30 06:38:13;;;;;;;7.32;2.97;;;;;;;;;;4949026;28;98755;-71
2024/01/30 06:40:39;;;;;;;7.15;3.20;;;;;;;;;;4948573;28;99308;-71
2024/01/30 06:43:07;;;;;;;7.50;3.28;;;;;;;;;;4948928;28;99333;-71
2024/01/30 06:45:34;;;;;;;5.90;2.67;;;;;;;;;;4949537;28;98540;-71
2024/01/30 06:48:01;;;;;;;7.15;2.90;;;;;;;;;;4948284;28;98947;-71
2024/01/30 06:50:27;;;;;;;9.25;2.90;;;;;;;;;;4931524;28;99156;-71
2024/01/30 06:52:54;;;;;;;6.47;3.20;;;;;;;;;;4949204;28;98261;-71
2024/01/30 06:55:21;;;;;;;6.47;3.00;;;;;;;;;;4949097;28;98938;-71
2024/01/30 06:57:47;;;;;;;6.75;3.03;;;;;;;;;;4952444;28;100078;-71
2024/01/30 07:00:18;;;;;;;7.05;2.97;;;;;;;;;;4948296;28;99964;-71
2024/01/30 07:02:45;;;;;;;6.63;2.80;;;;;;;;;;4947545;28;100394;-71
2024/01/30 07:05:11;;;;;;;8.20;2.90;;;;;;;;;;4961635;28;99236;-71
2024/01/30 07:07:38;;;;;;;6.25;2.97;;;;;;;;;;4951266;28;98797;-71
2024/01/30 07:10:05;;;;;;;7.05;2.95;;;;;;;;;;4968076;28;99229;-71
2024/01/30 07:12:31;;;;;;;6.07;2.72;;;;;;;;;;4966146;28;98791;-71
2024/01/30 07:14:59;;;;;;;6.60;2.80;;;;;;;;;;4948616;28;106393;-71
2024/01/30 07:17:26;;;;;;;6.90;2.72;;;;;;;;;;4948014;28;100718;-71
2024/01/30 07:19:52;;;;;;;7.25;2.75;;;;;;;;;;4969040;28;98817;-71
2024/01/30 07:22:19;;;;;;;6.97;3.15;;;;;;;;;;4966785;28;100339;-71
2024/01/30 07:24:47;;;;;;;8.52;3.00;;;;;;;;;;4963758;28;99321;-71
2024/01/30 07:27:14;;;;;;;6.30;2.72;;;;;;;;;;4948646;28;100560;-71
2024/01/30 07:29:41;;;;;;;6.65;2.70;;;;;;;;;;4947948;28;99126;-71
2024/01/30 07:32:07;;;;;;;6.75;2.92;;;;;;;;;;4948952;28;99320;-71
2024/01/30 07:34:34;;;;;;;6.78;2.70;;;;;;;;;;4950616;28;99816;-71
2024/01/30 07:37:15;;;;;;;7.13;2.83;;;;;;;;;;4967530;28;100163;-70
2024/01/30 07:39:42;;;;;;;12.05;3.35;;;;;;;;;;4951304;28;98820;-71
2024/01/30 07:42:09;;;;;;;11.02;3.42;;;;;;;;;;4952052;28;100315;-71
2024/01/30 07:44:35;;;;;;;9.45;2.97;;;;;;;;;;4947689;28;98729;-71
2024/01/30 07:47:02;;;;;;;17.38;3.50;;;;;;;;;;4948206;28;100061;-71
2024/01/30 07:49:29;;;;;;;7.57;2.90;;;;;;;;;;4946847;28;100841;-71
2024/01/30 07:51:56;;;;;;;8.27;2.95;;;;;;;;;;4947702;28;99013;-71
2024/01/30 07:54:23;;;;;;;11.10;2.90;;;;;;;;;;4947432;28;99885;-71
2024/01/30 07:56:52;;;;;;;7.13;2.70;;;;;;;;;;4939473;28;99082;-69
2024/01/30 07:59:21;;;;;;;9.10;2.90;;;;;;;;;;4939508;28;99026;-69
2024/01/30 08:01:48;;;;;;;7.82;2.70;;;;;;;;;;4938675;28;99288;-70
2024/01/30 08:04:14;;;;;;;6.30;2.75;;;;;;;;;;4945059;28;98845;-70
2024/01/30 08:06:41;;;;;;;6.53;2.83;;;;;;;;;;4945699;28;98864;-70
2024/01/30 08:09:10;;;;;;;5.45;2.58;;;;;;;;;;4940334;28;99466;-70
2024/01/30 08:11:37;;;;;;;6.28;2.92;;;;;;;;;;4939030;28;98964;-70
2024/01/30 08:14:04;;;;;;;5.53;2.63;;;;;;;;;;4946292;28;99706;-70
2024/01/30 08:16:30;;;;;;;6.03;2.65;;;;;;;;;;4928638;28;100948;-70
2024/01/30 08:18:57;;;;;;;7.70;2.90;;;;;;;;;;4940131;28;99134;-71
2024/01/30 08:21:24;;;;;;;;;;;;;;;;;;4939631;28;98911;-71
2024/01/30 08:23:51;;;;;;;9.40;2.90;;;;;;;;;;4944139;28;100305;-70
2024/01/30 08:26:17;;;;;;;7.63;2.47;;;;;;;;;;4940459;28;99269;-71
2024/01/30 08:28:44;;;;;;;6.47;2.58;;;;;;;;;;4938308;28;99211;-71
2024/01/30 08:31:11;;;;;;;6.70;2.70;;;;;;;;;;4939850;28;98143;-71
2024/01/30 08:33:38;;;;;;;6.85;2.67;;;;;;;;;;4939947;28;99568;-71
2024/01/30 08:36:06;;;;;;;5.88;2.50;;;;;;;;;;4946901;28;99749;-71
2024/01/30 08:38:33;;;;;;;7.57;2.60;;;;;;;;;;4937776;28;99588;-71
2024/01/30 08:40:59;;;;;;;5.53;2.72;;;;;;;;;;4939813;28;99580;-71
2024/01/30 08:43:26;;;;;;;9.95;2.70;;;;;;;;;;4938692;28;99334;-71
2024/01/30 08:45:52;;;;;;;6.13;2.58;;;;;;;;;;4943224;28;98976;-70
2024/01/30 08:48:19;;;;;;;7.15;2.45;;;;;;;;;;4937611;28;99103;-71
2024/01/30 08:50:45;;;;;;;6.22;2.67;;;;;;;;;;4939154;28;99198;-71
2024/01/30 08:53:12;;;;;;;6.05;2.70;;;;;;;;;;4939288;28;100019;-71
2024/01/30 08:55:39;;;;;;;5.55;2.50;;;;;;;;;;4939759;28;99457;-71
2024/01/30 08:58:05;;;;;;;6.35;2.40;;;;;;;;;;4938372;28;99300;-71
2024/01/30 09:00:32;;;;;;;6.13;2.97;;;;;;;;;;4939522;28;99085;-71
2024/01/30 09:02:58;;;;;;;5.75;2.50;;;;;;;;;;4937984;28;104836;-71
2024/01/30 09:05:25;;;;;;;5.63;2.63;;;;;;;;;;4938206;28;98641;-73
2024/01/30 09:07:51;;;;;;;6.15;2.58;;;;;;;;;;4942587;28;99820;-71
2024/01/30 09:10:20;;;;;;;6.97;2.80;;;;;;;;;;4938831;28;98959;-71
2024/01/30 09:12:47;;;;;;;6.75;2.55;;;;;;;;;;4942499;28;99485;-71
2024/01/30 09:15:14;;;;;;;5.38;2.70;;;;;;;;;;4957410;28;99323;-71
2024/01/30 09:17:40;;;;;;;7.30;2.63;;;;;;;;;;4942247;28;99045;-71
2024/01/30 09:20:09;;;;;;;7.78;3.22;;;;;;;;;;4958290;28;100354;-72
2024/01/30 09:22:35;;;;;;;6.20;2.60;;;;;;;;;;4941348;28;99036;-71
2024/01/30 09:25:02;;;;;;;6.32;2.65;;;;;;;;;;4938626;28;98966;-71
2024/01/30 09:27:29;;;;;;;6.18;2.50;;;;;;;;;;4939749;28;99729;-71
2024/01/30 09:29:55;;;;;;;7.35;2.88;;;;;;;;;;4942403;28;99602;-71
2024/01/30 09:32:22;;;;;;;6.15;2.60;;;;;;;;;;4939379;28;99993;-71
2024/01/30 09:34:48;;;;;;;6.32;2.78;;;;;;;;;;4939148;28;99441;-71
2024/01/30 09:37:17;;;;;;;5.63;2.40;;;;;;;;;;4938152;28;99268;-72
2024/01/30 09:39:44;;;;;;;6.43;2.85;;;;;;;;;;4941796;28;98920;-71
2024/01/30 09:42:11;;;;;;;5.72;2.60;;;;;;;;;;4944278;28;100123;-71
2024/01/30 09:44:38;;;;;;;6.63;2.75;;;;;;;;;;4940302;28;97974;-71
2024/01/30 09:47:05;;;;;;;5.03;2.55;;;;;;;;;;4941801;28;99389;-69
2024/01/30 09:49:32;;;;;;;7.30;2.58;;;;;;;;;;4928214;28;100376;-69
2024/01/30 09:52:00;;;;;;;6.10;2.47;;;;;;;;;;4925555;28;99712;-69
2024/01/30 09:54:26;;;;;;;;;;;;;;;;;;4924636;28;100358;-69
2024/01/30 09:56:53;;;;;;;7.47;2.70;;;;;;;;;;4923282;28;116791;-69
2024/01/30 09:59:19;;;;;;;5.80;2.53;;;;;;;;;;4923437;28;100157;-69
2024/01/30 10:01:46;;;;;;;7.72;2.75;;;;;;;;;;4922894;28;100097;-69
2024/01/30 10:04:12;;;;;;;7.68;2.72;;;;;;;;;;4923670;28;98908;-69
2024/01/30 10:06:40;;;;;;;6.72;2.75;;;;;;;;;;4926639;28;99455;-69
2024/01/30 10:09:06;;;;;;;;;;;;;;;;;;4921785;28;100199;-68
2024/01/30 10:11:33;;;;;;;5.13;2.60;;;;;;;;;;4928050;28;99046;-71
2024/01/30 10:14:00;;;;;;;6.55;2.70;;;;;;;;;;4917668;28;100473;-70
2024/01/30 10:16:26;;;;;;;6.10;2.42;;;;;;;;;;4921133;28;99814;-70
2024/01/30 10:18:53;;;;;;;7.72;2.72;;;;;;;;;;4912139;28;100369;-70
2024/01/30 10:21:20;;;;;;;5.82;2.58;;;;;;;;;;4910660;28;99212;-70
2024/01/30 10:23:47;;;;;;;7.95;2.58;;;;;;;;;;4921178;28;105261;-70
2024/01/30 10:26:16;;;;;;;6.30;2.50;;;;;;;;;;4922257;28;99122;-70
2024/01/30 10:28:43;;;;;;;6.90;2.60;;;;;;;;;;4903031;28;100703;-70
2024/01/30 10:31:09;;;;;;;6.60;2.85;;;;;;;;;;4922172;28;99019;-70
2024/01/30 10:33:36;;;;;;;6.78;2.83;;;;;;;;;;4925311;28;99450;-70
2024/01/30 10:36:04;;;;;;;6.85;2.60;;;;;;;;;;4914238;28;98943;-70
2024/01/30 10:38:32;;;;;;;5.45;2.42;;;;;;;;;;4910862;28;99298;-70
2024/01/30 10:40:59;;;;;;;5.82;2.72;;;;;;;;;;4919864;28;105567;-70
2024/01/30 10:43:35;;;;;;;7.22;2.67;;;;;;;;;;4922909;28;99066;-70
2024/01/30 10:46:22;;;;;;;5.80;2.60;;;;;;;;;;4921738;28;99034;-70
2024/01/30 10:48:56;;;;;;;5.03;2.60;;;;;;;;;;4927300;28;100334;-70
2024/01/30 10:51:25;;;;;;;5.35;2.20;;;;;;;;;;4941034;28;99805;-70
2024/01/30 10:53:52;;;;;;;7.45;2.35;;;;;;;;;;4940545;28;98838;-70
2024/01/30 10:56:20;;;;;;;4.95;2.50;;;;;;;;;;4944608;28;101276;-70
2024/01/30 10:58:51;;;;;;;5.43;2.33;;;;;;;;;;4939818;28;100189;-71
2024/01/30 11:01:24;;;;;;;6.10;2.67;;;;;;;;;;4940639;28;101066;-70
2024/01/30 11:03:52;;;;;;;4.72;2.30;;;;;;;;;;4941897;28;98765;-69
2024/01/30 11:06:18;;;;;;;;;;;;;;;;;;4942883;28;99814;-69
2024/01/30 11:08:45;;;;;;;6.15;2.80;;;;;;;;;;4939754;28;126139;-69
2024/01/30 11:11:12;;;;;;;;;;;;;;;;;;4941227;28;98929;-70
2024/01/30 11:13:42;;;;;;;6.90;2.90;;;;;;;;;;4952401;28;117564;-70
2024/01/30 11:16:11;;;;;;;5.43;2.50;;;;;;;;;;4955937;28;100297;-70
2024/01/30 11:18:37;;;;;;;6.68;2.40;;;;;;;;;;4943468;28;99117;-70
2024/01/30 11:21:04;;;;;;;5.75;2.63;;;;;;;;;;4939723;28;100870;-70
2024/01/30 11:23:33;;;;;;;6.05;2.60;;;;;;;;;;4941213;28;98521;-69
2024/01/30 11:26:00;;;;;;;6.85;2.70;;;;;;;;;;4939791;28;99038;-70
2024/01/30 11:28:26;;;;;;;;;;;;;;;;;;4922894;28;100390;-70
2024/01/30 11:31:02;;;;;;;5.75;2.42;;;;;;;;;;4939369;28;117181;-70
2024/01/30 11:33:33;;;;;;;5.07;2.22;;;;;;;;;;4939986;28;99683;-70
2024/01/30 11:36:02;;;;;;;5.15;2.15;;;;;;;;;;4949517;28;100115;-70
2024/01/30 11:38:28;;;;;;;5.75;2.47;;;;;;;;;;4939821;28;99117;-70
2024/01/30 11:40:58;;;;;;;6.43;2.45;;;;;;;;;;4953627;28;98958;-70
2024/01/30 11:43:25;;;;;;;5.10;2.28;;;;;;;;;;4922157;28;98909;-70
2024/01/30 11:45:52;;;;;;;6.25;2.40;;;;;;;;;;4941559;28;99455;-70
2024/01/30 11:48:19;;;;;;;5.43;2.20;;;;;;;;;;4939674;28;100357;-70
2024/01/30 11:50:46;;;;;;;5.18;2.20;;;;;;;;;;4940342;28;99003;-70
2024/01/30 11:53:12;;;;;;;4.05;2.00;;;;;;;;;;4952655;28;100028;-70
2024/01/30 11:55:39;;;;;;;4.63;1.98;;;;;;;;;;4938472;28;101778;-69
2024/01/30 11:58:06;;;;;;;5.30;2.00;;;;;;;;;;4939541;28;99241;-70
2024/01/30 12:00:33;;;;;;;6.03;2.20;;;;;;;;;;4939268;28;98909;-70
2024/01/30 12:03:01;;;;;;;5.53;1.90;;;;;;;;;;4942281;28;99730;-70
2024/01/30 12:05:29;;;;;;;4.35;2.10;;;;;;;;;;4953149;28;99241;-69
2024/01/30 12:07:58;;;;;;;;;;;;;;;;;;4938652;28;98986;-70
2024/01/30 12:10:26;;;;;;;5.38;2.00;;;;;;;;;;4938405;28;104579;-70
2024/01/30 12:12:53;;;;;;;4.45;1.90;;;;;;;;;;4938059;28;100155;-70
2024/01/30 12:15:21;;;;;;;3.88;1.63;;;;;;;;;;4939196;28;99908;-70
2024/01/30 12:17:48;;;;;;;4.30;1.70;;;;;;;;;;4939306;28;99315;-70
2024/01/30 12:20:17;;;;;;;4.43;1.98;;;;;;;;;;4919391;28;99931;-70
2024/01/30 12:22:45;;;;;;;4.43;1.98;;;;;;;;;;4939515;28;100578;-70
2024/01/30 12:25:12;;;;;;;4.38;1.73;;;;;;;;;;4939307;28;100103;-70
2024/01/30 12:27:41;;;;;;;4.13;1.63;;;;;;;;;;4939036;28;99234;-70
2024/01/30 12:30:09;;;;;;;4.25;1.80;;;;;;;;;;4939771;28;99068;-70
2024/01/30 12:32:36;;;;;;;4.20;1.75;;;;;;;;;;4938869;28;98799;-70
2024/01/30 12:35:03;;;;;;;3.47;1.70;;;;;;;;;;4946657;28;99843;-70
2024/01/30 12:37:29;;;;;;;;;;;;;;;;;;4944394;28;98352;-70
2024/01/30 12:39:56;;;;;;;3.28;1.60;;;;;;;;;;4941951;28;98955;-70
2024/01/30 12:42:23;;;;;;;3.13;1.60;;;;;;;;;;4936995;28;99144;-70
2024/01/30 12:44:50;;;;;;;4.25;1.80;;;;;;;;;;4940070;28;99732;-70
2024/01/30 12:47:16;;;;;;;3.38;1.42;;;;;;;;;;4936756;28;99925;-69
2024/01/30 12:49:44;;;;;;;3.65;1.50;;;;;;;;;;4939112;28;99010;-69
2024/01/30 12:52:11;;;;;;;4.55;1.80;;;;;;;;;;4938246;28;99335;-70
2024/01/30 12:54:38;;;;;;;3.85;1.60;;;;;;;;;;4937188;28;99653;-69
2024/01/30 12:57:05;;;;;;;3.55;1.42;;;;;;;;;;4937581;28;98916;-68
2024/01/30 12:59:32;;;;;;;3.85;1.60;;;;;;;;;;4938700;28;100131;-68
2024/01/30 13:01:59;;;;;;;3.72;1.65;;;;;;;;;;4939294;28;98745;-70
2024/01/30 13:04:26;;;;;;;4.90;1.55;;;;;;;;;;4944107;28;98805;-71
2024/01/30 13:06:53;;;;;;;4.78;1.70;;;;;;;;;;4946564;28;99916;-70
2024/01/30 13:09:20;;;;;;;4.53;1.58;;;;;;;;;;4937993;28;99903;-71
2024/01/30 13:11:46;;;;;;;3.55;1.45;;;;;;;;;;4938657;28;100703;-70
2024/01/30 13:14:13;;;;;;;3.08;1.30;;;;;;;;;;4952895;28;100430;-70
2024/01/30 13:16:39;;;;;;;3.85;1.23;;;;;;;;;;4949750;28;99560;-70
2024/01/30 13:19:06;;;;;;;4.07;1.50;;;;;;;;;;4936598;28;98961;-70
2024/01/30 13:21:33;;;;;;;3.47;1.25;;;;;;;;;;4938318;28;100179;-70
2024/01/30 13:23:59;;;;;;;4.07;1.40;;;;;;;;;;4937822;28;99352;-70
2024/01/30 13:26:26;;;;;;;3.50;1.35;;;;;;;;;;4938812;28;99920;-71
2024/01/30 13:28:52;;;;;;;3.33;1.20;;;;;;;;;;4940929;28;99214;-70
2024/01/30 13:31:19;;;;;;;3.97;1.60;;;;;;;;;;4938093;28;99142;-70
2024/01/30 13:33:46;;;;;;;6.60;1.40;;;;;;;;;;4938227;28;101074;-70
2024/01/30 13:36:12;;;;;;;4.65;1.42;;;;;;;;;;4938323;28;99347;-70
2024/01/30 13:38:39;;;;;;;3.33;1.33;;;;;;;;;;4938770;28;99760;-71
2024/01/30 13:41:05;;;;;;;2.78;1.30;;;;;;;;;;4936052;28;100227;-70
2024/01/30 13:43:32;;;;;;;4.10;1.30;;;;;;;;;;4938148;28;98922;-71
2024/01/30 13:45:59;;;;;;;4.03;1.23;;;;;;;;;;4936539;28;100405;-70
2024/01/30 13:48:25;;;;;;;4.10;1.30;;;;;;;;;;4936002;28;100970;-70
2024/01/30 13:50:53;;;;;;;5.13;1.35;;;;;;;;;;4940288;28;98916;-70
2024/01/30 13:53:20;;;;;;;3.92;1.30;;;;;;;;;;4938033;28;100503;-70
2024/01/30 13:55:47;;;;;;;3.90;1.30;;;;;;;;;;4936158;28;106308;-70
2024/01/30 13:58:13;;;;;;;4.40;1.30;;;;;;;;;;4937466;28;99713;-70
2024/01/30 14:00:40;;;;;;;3.42;1.20;;;;;;;;;;4937652;28;100067;-70
2024/01/30 14:03:07;;;;;;;3.97;1.17;;;;;;;;;;4938258;28;106064;-69
2024/01/30 14:05:33;;;;;;;3.63;1.30;;;;;;;;;;4949350;28;99820;-69
2024/01/30 14:08:00;;;;;;;3.30;1.17;;;;;;;;;;4936926;28;100836;-68
2024/01/30 14:10:27;;;;;;;4.68;1.25;;;;;;;;;;4938886;28;99043;-69
2024/01/30 14:12:53;;;;;;;2.20;1.10;;;;;;;;;;4944939;28;99126;-69
2024/01/30 14:15:21;;;;;;;3.92;1.08;;;;;;;;;;4958903;28;97895;-69
2024/01/30 14:17:55;;;;;;;3.70;1.00;;;;;;;;;;4937784;28;98990;-70
2024/01/30 14:20:22;;;;;;;4.15;1.05;;;;;;;;;;4939928;28;99901;-68
2024/01/30 14:22:48;;;;;;;3.75;1.17;;;;;;;;;;4940915;28;99682;-70
2024/01/30 14:25:16;;;;;;;3.83;1.10;;;;;;;;;;4939659;28;100925;-70
2024/01/30 14:27:43;;;;;;;3.10;1.00;;;;;;;;;;4937480;28;100234;-69
2024/01/30 14:30:10;;;;;;;3.95;1.25;;;;;;;;;;4937989;28;98982;-70
2024/01/30 14:32:38;;;;;;;3.20;1.17;;;;;;;;;;4944243;28;99205;-70
2024/01/30 14:35:05;;;;;;;4.93;1.10;;;;;;;;;;4948732;28;98995;-69
2024/01/30 14:37:31;;;;;;;2.88;1.10;;;;;;;;;;4946287;28;99150;-70
2024/01/30 14:39:58;;;;;;;3.88;1.10;;;;;;;;;;4945632;28;100000;-69